Bowie, Texas
Current Conditions -  °F | °C
As of 8:35 AM on Tuesday 21 Oct 2014 (Local Time) from K0F2 Reporting Station
Haze Haze  
Wind Chill: 59°   Ceiling: Unl
Heat Index: 59°   Visibility: 2.5mi
Dew Point: 58°   Wind: 0mph
Humidity: 97%   Direction: NA
Pressure: 30.11"   Gusts: NA
Location:  33.56°N, 97.85°W
Report Text: K0F2 211335Z AUTO 00000KT 2 1/2SM BR CLR 15/15 A3011 RMK AO2 T01500146
Loading
Personal Weather Stations






























Interactive Weather Map
Tropical Storm Tracking
New forecast layout! Learn more

10-Day Weather Forecast

Advertisements
Track Severe Weather on mobile